createdAt,value
2023-02-09T00:04:35.404Z,99041.88
2023-02-09T00:09:38.799Z,99019.38
2023-02-09T00:14:42.229Z,99029.69
2023-02-09T00:19:46.781Z,99024.50
2023-02-09T00:24:50.002Z,99021.06
2023-02-09T00:29:53.196Z,99015.06
2023-02-09T00:34:57.686Z,99018.50
2023-02-09T00:40:00.932Z,99014.25
2023-02-09T00:45:04.062Z,99019.41
2023-02-09T00:50:09.338Z,99012.53
2023-02-09T00:55:12.506Z,99012.50
2023-02-09T01:00:18.098Z,99008.22
2023-02-09T01:05:22.633Z,99013.41
2023-02-09T01:10:25.969Z,99003.88
2023-02-09T01:15:29.099Z,99002.16
2023-02-09T01:20:33.714Z,98998.63
2023-02-09T01:25:36.868Z,99006.38
2023-02-09T01:30:40.204Z,98993.44
2023-02-09T01:35:44.844Z,98981.41
2023-02-09T01:40:49.422Z,98973.53
2023-02-09T01:45:54.826Z,98971.00
2023-02-09T01:51:01.535Z,98964.97
2023-02-09T01:56:09.368Z,98946.06
2023-02-09T02:01:13.271Z,98948.63
2023-02-09T02:06:19.562Z,98947.66
2023-02-09T02:11:25.213Z,98943.31
2023-02-09T02:16:42.758Z,98944.09
2023-02-09T02:22:23.117Z,98955.22
2023-02-09T02:27:33.297Z,98948.97
2023-02-09T02:32:53.962Z,98939.50
2023-02-09T02:38:04.361Z,98931.75
2023-02-09T02:43:15.112Z,98935.16
2023-02-09T02:48:28.602Z,98934.03
2023-02-09T02:53:35.261Z,98931.63
2023-02-09T02:58:42.109Z,98916.94
2023-02-09T03:03:48.436Z,98923.66
2023-02-09T03:08:54.374Z,98918.34
2023-02-09T03:49:49.859Z,98920.47
2023-02-09T03:54:53.027Z,98924.66
2023-02-09T03:59:56.195Z,98922.13
2023-02-09T04:05:00.823Z,98929.78
2023-02-09T04:10:05.541Z,98918.50
2023-02-09T04:15:09.405Z,98925.44
2023-02-09T04:20:14.223Z,98916.75
2023-02-09T04:25:17.638Z,98912.34
2023-02-09T04:30:21.341Z,98910.59
2023-02-09T04:35:25.984Z,98907.75
2023-02-09T04:40:29.371Z,98893.88
2023-02-09T04:45:32.611Z,98895.25
2023-02-09T04:50:37.142Z,98898.94
2023-02-09T04:55:40.822Z,98895.59
2023-02-09T05:00:44.465Z,98900.09
2023-02-09T05:05:49.525Z,98900.19
2023-02-09T05:10:53.620Z,98895.41
2023-02-09T05:16:21.324Z,98903.31
2023-02-09T05:21:26.369Z,98910.06
2023-02-09T05:33:41.660Z,98911.63
2023-02-09T05:38:46.199Z,98902.22
2023-02-09T05:43:49.340Z,98902.91
2023-02-09T05:48:52.491Z,98908.22
2023-02-09T05:53:57.212Z,98908.13
2023-02-09T05:59:01.735Z,98903.91
2023-02-09T06:04:06.615Z,98909.94
2023-02-09T06:09:11.654Z,98912.44
2023-02-09T06:14:15.335Z,98914.78
2023-02-09T06:19:20.649Z,98922.56
2023-02-09T06:24:25.334Z,98925.16
2023-02-09T06:29:28.693Z,98921.63
2023-02-09T06:34:31.956Z,98933.31
2023-02-09T06:39:36.522Z,98914.47
2023-02-09T06:44:39.700Z,98920.78
2023-02-09T06:49:42.910Z,98933.34
2023-02-09T06:54:47.499Z,98927.41
2023-02-09T06:59:50.691Z,98919.00
2023-02-09T07:04:53.884Z,98918.69
2023-02-09T07:09:58.707Z,98926.91
2023-02-09T07:15:02.145Z,98920.06
2023-02-09T07:20:06.455Z,98913.84
2023-02-09T07:25:11.154Z,98910.66
2023-02-09T07:30:15.416Z,98908.66
2023-02-09T07:35:18.765Z,98904.94
2023-02-09T07:40:23.432Z,98904.94
2023-02-09T07:45:26.880Z,98902.44
2023-02-09T07:50:30.133Z,98897.38
2023-02-09T07:55:34.894Z,98888.97
2023-02-09T08:00:38.457Z,98885.81
2023-02-09T08:05:47.207Z,98878.09
2023-02-09T08:10:52.746Z,98884.38
2023-02-09T08:15:59.256Z,98889.78
2023-02-09T08:21:02.627Z,98885.66
2023-02-09T08:26:11.163Z,98880.56
2023-02-09T08:31:16.149Z,98883.44
2023-02-09T08:36:21.011Z,98887.94
2023-02-09T08:41:25.786Z,98894.13
2023-02-09T08:46:29.124Z,98883.13
2023-02-09T08:51:32.388Z,98883.88
2023-02-09T08:56:37.125Z,98885.25
2023-02-09T09:01:40.640Z,98887.34
2023-02-09T09:06:44.017Z,98891.16
2023-02-09T09:11:48.619Z,98896.75
2023-02-09T09:16:51.849Z,98898.28
2023-02-09T09:21:55.077Z,98895.69
2023-02-09T09:26:59.803Z,98902.34
2023-02-09T09:32:03.345Z,98906.72
2023-02-09T09:37:06.808Z,98902.25
2023-02-09T09:42:24.253Z,98901.84
2023-02-09T09:47:36.123Z,98897.78
2023-02-09T09:52:43.744Z,98901.81
2023-02-09T09:57:48.584Z,98894.88
2023-02-09T10:02:52.002Z,98887.41
2023-02-09T10:08:01.079Z,98875.63
2023-02-09T10:13:15.870Z,98874.31
2023-02-09T10:18:25.239Z,98874.72
2023-02-09T10:23:37.607Z,98871.88
2023-02-09T10:28:44.735Z,98878.09
2023-02-09T10:33:55.325Z,98865.00
2023-02-09T10:39:18.226Z,98851.56
2023-02-09T10:44:25.883Z,98843.09
2023-02-09T10:49:35.449Z,98841.84
2023-02-09T10:54:43.225Z,98846.56
2023-02-09T10:59:52.562Z,98831.91
2023-02-09T11:04:55.782Z,98815.28
2023-02-09T11:10:01.035Z,98821.59
2023-02-09T11:15:13.680Z,98815.41
2023-02-09T11:20:28.855Z,98811.38
2023-02-09T11:25:38.389Z,98798.56
2023-02-09T11:31:03.976Z,98792.81
2023-02-09T11:36:20.305Z,98787.47
2023-02-09T11:41:47.772Z,98781.88
2023-02-09T11:47:05.429Z,98767.56
2023-02-09T11:52:10.269Z,98756.41
2023-02-09T11:57:19.597Z,98731.78
2023-02-09T12:02:40.024Z,98743.53
2023-02-09T12:07:50.024Z,98733.75
2023-02-09T12:12:59.101Z,98738.19
2023-02-09T12:18:07.217Z,98724.50
2023-02-09T12:23:19.732Z,98729.78
2023-02-09T12:28:45.749Z,98739.41
2023-02-09T12:34:13.909Z,98732.78
2023-02-09T12:39:26.020Z,98749.50
2023-02-09T12:44:38.899Z,98746.44
2023-02-09T12:49:45.183Z,98742.47
2023-02-09T12:54:54.833Z,98735.03
2023-02-09T13:00:32.425Z,98743.28
2023-02-09T13:05:43.158Z,98749.28
2023-02-09T13:10:55.503Z,98744.44
2023-02-09T13:16:18.209Z,98747.41
2023-02-09T13:21:33.850Z,98751.19
2023-02-09T13:26:38.963Z,98748.13
2023-02-09T13:31:43.927Z,98741.28
2023-02-09T13:36:56.726Z,98742.69
2023-02-09T13:42:00.081Z,98737.59
2023-02-09T13:47:07.860Z,98747.19
2023-02-09T13:52:15.419Z,98763.47
2023-02-09T13:57:31.865Z,98776.34
2023-02-09T14:02:36.596Z,98767.50
2023-02-09T14:07:41.655Z,98756.63
2023-02-09T14:12:55.684Z,98760.66
2023-02-09T14:17:59.353Z,98769.09
2023-02-09T14:23:04.070Z,98775.06
2023-02-09T14:28:07.315Z,98785.00
2023-02-09T14:33:25.388Z,98783.06
2023-02-09T14:38:42.653Z,98783.28
2023-02-09T14:43:46.060Z,98783.94
2023-02-09T14:48:49.596Z,98775.56
2023-02-09T14:53:54.977Z,98786.25
2023-02-09T14:58:58.399Z,98784.25
2023-02-09T15:04:01.575Z,98792.34
2023-02-09T15:09:06.506Z,98807.91
2023-02-09T15:14:12.381Z,98797.09
2023-02-09T15:19:20.321Z,98751.28
2023-02-09T15:24:24.961Z,98773.53
2023-02-09T15:29:28.269Z,98782.47
2023-02-09T15:34:31.648Z,98781.19
2023-02-09T15:39:36.584Z,98781.25
2023-02-09T15:44:56.982Z,98797.56
2023-02-09T15:50:00.240Z,98799.63
2023-02-09T15:55:05.360Z,98808.59
2023-02-09T16:00:15.791Z,98806.06
2023-02-09T16:05:19.119Z,98795.84
2023-02-09T16:10:27.230Z,98797.97
2023-02-09T16:15:30.544Z,98804.91
2023-02-09T16:20:33.981Z,98808.13
2023-02-09T16:25:38.560Z,98820.50
2023-02-09T16:30:51.165Z,98827.25
2023-02-09T16:35:57.877Z,98831.69
2023-02-09T16:41:02.413Z,98836.34
2023-02-09T16:46:06.294Z,98848.72
2023-02-09T16:51:14.430Z,98866.09
2023-02-09T16:56:19.967Z,98850.22
2023-02-09T17:01:24.948Z,98863.13
2023-02-09T17:06:31.218Z,98857.25
2023-02-09T17:11:36.101Z,98860.72
2023-02-09T17:16:43.451Z,98866.13
2023-02-09T17:21:46.772Z,98866.16
2023-02-09T17:26:51.422Z,98867.53
2023-02-09T17:31:54.785Z,98866.44
2023-02-09T17:36:58.546Z,98858.03
2023-02-09T17:42:03.307Z,98872.06
2023-02-09T17:47:06.593Z,98873.69
2023-02-09T17:52:16.495Z,98876.22
2023-02-09T17:57:22.208Z,98885.88
2023-02-09T18:02:25.910Z,98880.69
2023-02-09T18:07:29.522Z,98889.41
2023-02-09T18:12:34.160Z,98891.19
2023-02-09T18:17:40.160Z,98898.16
2023-02-09T18:22:44.786Z,98880.88
2023-02-09T18:27:51.414Z,98894.06
2023-02-09T18:32:54.890Z,98898.28
2023-02-09T18:37:58.298Z,98895.69
2023-02-09T18:43:04.674Z,98909.56
2023-02-09T18:48:08.101Z,98894.91
2023-02-09T18:53:12.833Z,98901.84
2023-02-09T18:58:17.545Z,98900.06
2023-02-09T19:03:21.392Z,98918.22
2023-02-09T19:08:25.328Z,98921.75
2023-02-09T19:13:33.847Z,98919.13
2023-02-09T19:18:38.663Z,98932.94
2023-02-09T19:23:42.318Z,98932.06
2023-02-09T19:28:48.459Z,98932.09
2023-02-09T19:33:56.490Z,98955.44
2023-02-09T19:39:00.810Z,98941.66
2023-02-09T19:44:06.401Z,98953.78
2023-02-09T19:49:10.105Z,98954.63
2023-02-09T19:54:13.546Z,98961.56
2023-02-09T19:59:19.546Z,98957.25
2023-02-09T20:04:23.593Z,98960.75
2023-02-09T20:09:27.210Z,98967.66
2023-02-09T20:14:33.588Z,98970.25
2023-02-09T20:19:38.231Z,98965.09
2023-02-09T20:24:42.915Z,98975.44
2023-02-09T20:29:48.251Z,98980.63
2023-02-09T20:34:52.832Z,98975.44
2023-02-09T20:39:56.969Z,98976.28
2023-02-09T20:45:19.041Z,98970.22
2023-02-09T20:50:22.429Z,98972.81
2023-02-09T20:55:25.725Z,98964.19
2023-02-09T21:00:30.703Z,98973.63
2023-02-09T21:05:34.117Z,98984.00
2023-02-09T21:10:38.631Z,98985.72
2023-02-09T21:15:43.349Z,98987.44
2023-02-09T21:20:46.791Z,98988.25
2023-02-09T21:25:50.060Z,98989.09
2023-02-09T21:30:55.011Z,98979.63
2023-02-09T21:35:59.585Z,98970.09
2023-02-09T21:41:02.796Z,98968.34
2023-02-09T21:46:07.498Z,98972.59
2023-02-09T21:51:10.912Z,98968.34
2023-02-09T21:56:14.429Z,98963.16
2023-02-09T22:01:19.351Z,98970.91
2023-02-09T22:06:22.693Z,98969.94
2023-02-09T22:11:26.120Z,98979.34
2023-02-09T22:16:31.036Z,98988.00
2023-02-09T22:21:34.210Z,98986.22
2023-02-09T22:26:39.594Z,98996.53
2023-02-09T22:31:44.772Z,98994.75
2023-02-09T22:36:51.675Z,98999.91
2023-02-09T22:41:58.118Z,99004.13
2023-02-09T22:47:02.860Z,99006.78
2023-02-09T22:52:06.327Z,99007.53
2023-02-09T22:57:09.755Z,99014.41
2023-02-09T23:02:15.712Z,99030.72
2023-02-09T23:07:19.034Z,99021.41
2023-02-09T23:12:22.521Z,99020.66
2023-02-09T23:17:27.210Z,99015.31
2023-02-09T23:22:30.350Z,99011.72
2023-02-09T23:27:33.464Z,99012.59
2023-02-09T23:32:38.005Z,99016.91
2023-02-09T23:37:41.192Z,99023.72
2023-02-09T23:42:44.362Z,99038.38
2023-02-09T23:47:49.104Z,99042.53
2023-02-09T23:52:52.267Z,99052.78
2023-02-09T23:57:55.627Z,99049.09
